Thursday, September 20, 2018, 8:40 AM EDT
Back to Local

KGON, Groton/new London Airport

Location: Groton, CT, United States Lat: 41.333
Local Time: 8:40 AM EDT (12:40 GMT) Lon: -72.05
Time Zone: US/Eastern Elev: 9 ft

Show me the last for .
Show Coded

Time T Td Feel RH Dir Speed Gust Alt SLP Vis Weather Sky Remarks
2018-09-20 07:56 61 56 - 83 10° 12 - 30.18 30.17 10 CLR 6-hr Min Temp (8am): 57.9°F
6-hr Max Temp (8am): 61.0°F
2018-09-20 06:56 59 56 - 89 10° 7 - 30.15 30.15 10 CLR None
2018-09-20 05:56 60 56 - 86 20° 7 - 30.13 30.13 10 OVC049 None
2018-09-20 04:56 60 56 - 86 20° 8 - 30.11 30.11 10 OVC047 None
2018-09-20 03:56 59 56 - 89 360° 7 - 30.11 30.11 10 OVC044 None
2018-09-20 02:56 58 55 - 90 20° 7 - 30.10 30.10 10 CLR None
2018-09-20 01:56 59 55 - 86 350° 7 - 30.10 30.10 10 CLR 6-hr Min Temp (2am): 59.0°F
6-hr Max Temp (2am): 64.0°F
2018-09-20 00:56 61 56 - 83 30° 9 - 30.09 30.09 10 OVC050 24-hr Min Temp (1am): 60.1°F
24-hr Max Temp (1am): 73.0°F
2018-09-19 23:56 61 55 - 80 20° 6 - 30.09 30.09 10 OVC055 None
2018-09-19 22:56 60 55 - 83 30° 9 - 30.07 30.07 10 OVC055 None
2018-09-19 21:56 61 55 - 80 40° 13 - 30.06 30.06 10 BKN055 None
2018-09-19 20:56 62 56 - 80 40° 15 - 30.04 30.04 10 OVC055 None
2018-09-19 19:56 64 59 - 83 60° 10 - 30.01 30.01 10 FEW016 6-hr Min Temp (8pm): 64.0°F
6-hr Max Temp (8pm): 73.0°F
2018-09-19 19:51 64 59 - 82 50° 9 - 30.01 - 10 SCT016 None
2018-09-19 18:56 66 60 - 81 50° 14 - 29.99 29.99 10 BKN018 None
2018-09-19 18:41 66 59 - 78 30° 10 - 29.99 - 10 BKN020 None
2018-09-19 18:32 66 60 - 81 40° 12 - 29.99 - 10 SCT020 None
2018-09-19 17:56 68 61 - 78 20° 10 - 29.98 29.98 10 OVC019 None
2018-09-19 16:56 70 62 - 76 50° 13 - 29.94 29.93 10 OVC020 None
2018-09-19 15:56 70 62 - 76 20° 13 - 29.92 29.92 10 BKN017 None
2018-09-19 14:56 72 64 76 76 50° 13 - 29.92 29.92 10 BKN017 None
2018-09-19 13:56 73 65 77 75 50° 15 - 29.91 29.91 10 BKN017 BKN027 BKN048 6-hr Min Temp (2pm): 68.0°F
6-hr Max Temp (2pm): 73.0°F
2018-09-19 13:49 72 64 76 76 50° 12 - 29.91 - 10 BKN017 BKN027 BKN048 None
2018-09-19 12:56 71 64 76 78 360° 13 - 29.92 29.92 10 OVC011 None
2018-09-19 11:56 71 65 76 81 20° 12 - 29.91 29.91 10 OVC012 None
2018-09-19 10:56 70 65 - 84 30° 9 - 29.91 29.91 10 OVC010 None
2018-09-19 09:56 71 66 76 84 30° 12 - 29.88 29.88 10 BKN013 OVC023 None
2018-09-19 09:02 70 68 - 93 20° 6 - 29.86 - 10 SCT010 OVC013 None
2018-09-19 08:56 70 68 - 93 20° 8 - 29.86 29.85 10 OVC015 None

Support USWX by starting your Amazon purchase here.